Time;durP1;ratioP1;P1;durP2;ratioP2;P2;SDS_P1;SDS_P2;PMS_P1;PMS_P2;Temp;Humidity;BMP_temperature;BMP_pressure;BME280_temperature;BME280_humidity;BME280_pressure;Samples;Min_cycle;Max_cycle;Signal;HPM_P1;HPM_P2
2022/03/19 00:02:47;;;;;;;33.55;15.60;;;;;;;5.16;59.80;94277.22;5059183;28;20685;-89
2022/03/19 00:09:15;;;;;;;40.00;14.50;;;;;;;5.43;58.46;94311.59;5039477;28;20065;-89
2022/03/19 00:12:04;;;;;;;;;;;;;;;;;;;;;
2022/03/19 00:15:06;;;;;;;;;;;;;;;;;;;;;
2022/03/19 00:17:58;;;;;;;;;;;;;;;;;;;;;
2022/03/19 00:21:05;;;;;;;27.17;13.68;;;;;;;5.16;58.60;94280.59;5033679;28;20038;-89
2022/03/19 00:24:04;;;;;;;30.45;13.35;;;;;;;5.00;58.72;94270.72;5018272;28;20049;-90
2022/03/19 00:26:43;;;;;;;38.42;14.43;;;;;;;5.32;58.55;94326.06;5029393;28;20038;-89
2022/03/19 00:29:28;;;;;;;30.50;13.07;;;;;;;4.95;58.15;94260.13;5021944;28;20033;-89
2022/03/19 00:32:10;;;;;;;28.83;13.43;;;;;;;4.93;58.11;94264.72;4997608;28;20136;-90
2022/03/19 00:35:17;;;;;;;;;;;;;;;;;;;;;
2022/03/19 00:38:21;;;;;;;;;;;;;;;;;;;;;
2022/03/19 00:44:15;;;;;;;28.20;13.13;;;;;;;4.86;56.87;94279.53;5019624;28;20395;-89
2022/03/19 00:47:11;;;;;;;;;;;;;;;;;;;;;
2022/03/19 00:50:34;;;;;;;27.15;11.93;;;;;;;5.17;56.70;94318.53;5043191;28;20044;-89
2022/03/19 00:53:07;;;;;;;28.25;12.43;;;;;;;5.07;56.88;94305.22;5056600;28;20041;-89
2022/03/19 00:56:05;;;;;;;;;;;;;;;;;;;;;
2022/03/19 01:02:03;;;;;;;22.73;11.65;;;;;;;4.88;55.43;94272.34;5033283;28;20057;-90
2022/03/19 01:08:05;;;;;;;22.15;11.23;;;;;;;5.08;56.18;94311.97;5045919;28;20077;-89
2022/03/19 01:11:03;;;;;;;25.70;11.63;;;;;;;5.18;56.08;94325.31;5038285;28;20040;-90
2022/03/19 01:13:34;;;;;;;21.40;10.48;;;;;;;4.73;55.90;94262.25;5052242;28;20041;-91
2022/03/19 01:23:01;;;;;;;;;;;;;;;;;;;;;
2022/03/19 01:25:46;;;;;;;25.13;11.38;;;;;;;4.71;54.93;94259.84;4990345;28;20064;-90
2022/03/19 01:28:23;;;;;;;23.13;10.32;;;;;;;4.91;56.01;94306.47;5020508;28;20119;-89
2022/03/19 01:31:27;;;;;;;26.83;11.85;;;;;;;5.04;55.64;94322.97;5004715;28;20063;-90
2022/03/19 01:34:30;;;;;;;19.38;10.07;;;;;;;4.83;55.60;94296.31;5036464;28;20028;-90
2022/03/19 01:37:13;;;;;;;19.35;9.77;;;;;;;4.74;55.54;94282.78;5008791;28;20482;-89
2022/03/19 01:40:18;;;;;;;;;;;;;;;;;;;;;
2022/03/19 01:43:04;;;;;;;;;;;;;;;;;;;;;
2022/03/19 01:45:43;;;;;;;20.33;10.93;;;;;;;4.82;55.99;94299.13;5019398;28;20072;-89
2022/03/19 01:48:25;;;;;;;22.10;11.15;;;;;;;4.54;56.11;94253.53;5019524;28;20041;-89
2022/03/19 01:51:37;;;;;;;25.38;11.05;;;;;;;4.64;55.51;94263.47;5020100;28;20040;-89
2022/03/19 01:54:42;;;;;;;22.35;10.43;;;;;;;4.51;55.79;94248.75;5031828;28;20038;-89
2022/03/19 01:58:03;;;;;;;25.67;10.60;;;;;;;4.56;55.23;94249.72;5037287;28;20123;-89
2022/03/19 02:00:54;;;;;;;23.75;10.93;;;;;;;4.64;55.16;94264.28;5019559;28;20059;-90
2022/03/19 02:03:36;;;;;;;29.23;10.65;;;;;;;4.73;55.46;94278.59;5038882;28;20044;-89
2022/03/19 02:06:43;;;;;;;21.10;10.15;;;;;;;4.50;55.31;94240.19;5036244;28;20040;-90
2022/03/19 02:09:37;;;;;;;22.05;10.20;;;;;;;4.59;55.68;94253.69;5055101;28;20394;-89
2022/03/19 02:12:11;;;;;;;22.83;10.75;;;;;;;4.48;55.62;94231.00;5038215;28;20042;-89
2022/03/19 02:14:50;;;;;;;19.98;11.15;;;;;;;4.47;55.70;94224.22;5038596;28;20037;-89
2022/03/19 02:17:40;;;;;;;19.42;10.80;;;;;;;4.41;56.43;94225.03;5051486;28;20545;-89
2022/03/19 02:20:51;;;;;;;;;;;;;;;;;;;;;
2022/03/19 02:27:17;;;;;;;;;;;;;;;;;;;;;
2022/03/19 02:30:16;;;;;;;22.30;9.50;;;;;;;4.46;55.56;94226.03;5031874;28;20034;-90
2022/03/19 02:33:20;;;;;;;19.95;10.15;;;;;;;4.51;55.88;94230.59;4990148;28;20068;-89
2022/03/19 02:36:20;;;;;;;20.10;9.85;;;;;;;4.49;55.68;94215.25;5015291;28;20129;-89
2022/03/19 02:39:30;;;;;;;;;;;;;;;;;;;;;
2022/03/19 02:42:38;;;;;;;;;;;;;;;;;;;;;
2022/03/19 02:48:30;;;;;;;23.20;10.77;;;;;;;4.60;55.53;94219.00;5003330;28;20107;-89
2022/03/19 02:51:18;;;;;;;;;;;;;;;;;;;;;
2022/03/19 02:53:57;;;;;;;22.35;10.65;;;;;;;4.77;54.82;94240.88;5020016;28;20045;-89
2022/03/19 02:56:48;;;;;;;25.23;10.10;;;;;;;4.88;55.54;94243.81;5034973;28;20034;-89
2022/03/19 02:59:56;;;;;;;20.23;10.30;;;;;;;4.59;55.66;94201.81;5019996;28;20029;-90
2022/03/19 03:02:58;;;;;;;24.92;11.10;;;;;;;4.50;55.77;94206.47;5019109;28;20061;-89
2022/03/19 03:05:44;;;;;;;21.73;10.15;;;;;;;4.65;55.86;94237.31;5018887;28;20490;-90
2022/03/19 03:08:43;;;;;;;;;;;;;;;;;;;;;
2022/03/19 03:11:36;;;;;;;21.17;10.38;;;;;;;4.50;55.81;94197.88;5007112;28;20445;-89
2022/03/19 03:14:43;;;;;;;23.10;9.90;;;;;;;4.50;55.50;94203.06;5021312;28;20054;-89
2022/03/19 03:17:30;;;;;;;22.67;9.88;;;;;;;4.42;55.87;94200.72;5019666;28;20046;-90
2022/03/19 03:20:27;;;;;;;;;;;;;;;;;;;;;
2022/03/19 03:23:27;;;;;;;21.20;9.75;;;;;;;4.55;55.93;94201.47;5033753;28;20099;-90
2022/03/19 03:26:23;;;;;;;26.52;10.70;;;;;;;4.82;56.16;94244.63;5018098;28;20120;-90
2022/03/19 03:39:03;;;;;;;24.13;9.10;;;;;;;4.31;56.71;94199.56;4984502;28;20049;-89
2022/03/19 03:41:44;;;;;;;19.10;9.93;;;;;;;4.71;56.65;94262.44;5001434;28;20087;-89
2022/03/19 03:44:42;;;;;;;18.25;9.07;;;;;;;4.36;56.21;94208.31;5016817;28;20049;-89
2022/03/19 03:47:33;;;;;;;;;;;;;;;;;;;;;
2022/03/19 03:50:21;;;;;;;;;;;;;;;;;;;;;
2022/03/19 03:53:30;;;;;;;;;;;;;;;4.71;56.77;94267.63;5034623;28;20071;-90
2022/03/19 03:56:19;;;;;;;24.35;10.60;;;;;;;4.62;56.16;94248.13;5034242;28;19920;-89
2022/03/19 04:02:07;;;;;;;23.80;9.15;;;;;;;4.58;56.22;94241.75;5011545;28;20526;-90
2022/03/19 04:04:45;;;;;;;18.33;9.25;;;;;;;4.44;56.84;94220.25;5012634;28;20060;-89
2022/03/19 04:07:56;;;;;;;20.50;9.27;;;;;;;4.30;57.34;94208.31;5029390;28;20038;-89
2022/03/19 04:10:54;;;;;;;25.95;9.73;;;;;;;4.51;56.83;94251.34;5008025;28;20046;-89
2022/03/19 04:14:20;;;;;;;;;;;;;;;;;;;;;
2022/03/19 04:17:16;;;;;;;18.55;8.43;;;;;;;4.39;55.92;94204.53;5024377;28;20128;-90
2022/03/19 04:20:22;;;;;;;;;;;;;;;;;;;;;
2022/03/19 04:23:12;;;;;;;17.67;9.18;;;;;;;4.53;55.80;94254.53;5039059;28;20096;-89
2022/03/19 04:25:51;;;;;;;23.38;9.18;;;;;;;4.30;57.24;94237.66;4992858;28;20041;-90
2022/03/19 04:28:45;;;;;;;21.85;10.27;;;;;;;4.57;55.28;94268.66;5023162;28;20042;-89
2022/03/19 04:31:47;;;;;;;;;;;;;;;;;;;;;
2022/03/19 04:34:32;;;;;;;19.63;9.57;;;;;;;4.42;54.62;94247.41;5028420;28;20091;-89
2022/03/19 04:37:13;;;;;;;22.92;9.68;;;;;;;4.16;54.60;94223.13;5039135;28;20045;-89
2022/03/19 04:40:14;;;;;;;19.67;9.55;;;;;;;4.06;55.00;94217.59;5040295;28;20030;-89
2022/03/19 04:43:07;;;;;;;21.70;9.93;;;;;;;3.89;54.55;94189.50;5039593;28;20044;-89
2022/03/19 04:45:49;;;;;;;19.40;9.50;;;;;;;3.74;54.93;94199.31;5022523;28;20041;-90
2022/03/19 04:49:01;;;;;;;23.30;9.80;;;;;;;3.67;55.12;94198.50;5022604;28;20041;-90
2022/03/19 04:55:25;;;;;;;21.15;9.18;;;;;;;4.02;55.36;94250.88;5040735;28;20095;-89
2022/03/19 04:57:53;;;;;;;19.35;9.65;;;;;;;3.95;55.42;94250.88;5022330;28;20029;-89
2022/03/19 05:00:26;;;;;;;21.88;9.75;;;;;;;4.03;54.54;94254.25;5005855;28;20041;-89
2022/03/19 05:03:19;;;;;;;;;;;;;;;;;;;;;
2022/03/19 05:06:15;;;;;;;19.85;10.18;;;;;;;3.81;54.77;94233.78;5022256;28;20525;-89
2022/03/19 05:12:36;;;;;;;19.27;8.57;;;;;;;3.90;54.93;94260.28;5040136;28;19917;-89
2022/03/19 05:15:32;;;;;;;20.52;9.93;;;;;;;3.77;55.33;94242.94;5021701;28;20064;-90
2022/03/19 05:18:49;;;;;;;;;;;;;;;;;;;;;
2022/03/19 05:24:34;;;;;;;;;;;;;;;;;;;;;
2022/03/19 05:27:18;;;;;;;;;;;;;;;;;;;;;
2022/03/19 05:30:01;;;;;;;18.08;8.40;;;;;;;3.76;51.37;94251.72;5033895;28;20068;-89
2022/03/19 05:32:56;;;;;;;18.88;9.18;;;;;;;3.60;51.25;94224.41;5035383;28;20140;-89
2022/03/19 05:35:44;;;;;;;17.85;8.75;;;;;;;3.40;51.46;94202.91;5015621;28;20427;-89
2022/03/19 05:39:00;;;;;;;18.50;8.60;;;;;;;3.53;52.63;94255.50;5003445;28;20044;-90
2022/03/19 05:41:45;;;;;;;19.98;9.00;;;;;;;3.18;53.22;94199.75;5019238;28;20482;-89
2022/03/19 05:44:37;;;;;;;21.42;9.30;;;;;;;3.42;53.79;94242.34;5018489;28;20072;-89
2022/03/19 05:47:28;;;;;;;18.45;8.38;;;;;;;3.29;53.61;94222.44;5005610;28;20508;-89
2022/03/19 05:50:09;;;;;;;15.85;8.52;;;;;;;3.33;52.90;94229.59;5034957;28;20049;-89
2022/03/19 05:53:00;;;;;;;22.15;9.30;;;;;;;3.49;52.51;94259.50;5021230;28;20040;-89
2022/03/19 05:55:49;;;;;;;;;;;;;;;;;;;;;
2022/03/19 05:58:46;;;;;;;18.25;9.23;;;;;;;3.06;52.63;94197.75;5035208;28;20120;-90
2022/03/19 06:01:45;;;;;;;;;;;;;;;;;;;;;
2022/03/19 06:04:16;;;;;;;20.42;9.18;;;;;;;3.13;52.59;94174.47;5034940;28;20065;-89
2022/03/19 06:06:51;;;;;;;16.23;8.43;;;;;;;3.52;51.01;94220.25;5003242;28;20120;-89
2022/03/19 06:09:47;;;;;;;;;;;;;;;3.72;49.96;94251.31;5007802;28;20049;-88
2022/03/19 06:15:40;;;;;;;19.60;8.45;;;;;;;3.35;50.04;94175.03;5013756;28;20057;-89
2022/03/19 06:18:36;;;;;;;14.70;7.25;;;;;;;3.45;50.23;94198.72;5020159;28;20049;-89
2022/03/19 06:21:44;;;;;;;;;;;;;;;;;;;;;
2022/03/19 06:24:28;;;;;;;;;;;;;;;;;;;;;
2022/03/19 06:27:24;;;;;;;;;;;;;;;;;;;;;
2022/03/19 06:30:37;;;;;;;;;;;;;;;;;;;;;
2022/03/19 06:33:12;;;;;;;19.23;8.65;;;;;;;4.14;47.86;94157.72;5020106;28;20049;-90
2022/03/19 06:39:05;;;;;;;;;;;;;;;;;;;;;
2022/03/19 06:42:05;;;;;;;15.43;8.35;;;;;;;4.43;47.77;94173.78;5053483;28;20037;-89
2022/03/19 06:45:31;;;;;;;;;;;;;;;;;;;;;
2022/03/19 06:48:40;;;;;;;19.10;8.98;;;;;;;5.62;46.19;94211.16;5026309;28;20052;-91
2022/03/19 06:51:18;;;;;;;22.08;9.18;;;;;;;5.55;45.83;94168.84;5034573;28;20034;-86
2022/03/19 06:53:44;;;;;;;21.55;9.27;;;;;;;6.80;43.92;94186.72;5016947;28;20505;-87
2022/03/19 06:56:15;;;;;;;16.42;8.80;;;;;;;7.24;41.92;94142.22;5038033;28;20224;-85
2022/03/19 06:58:41;;;;;;;17.60;9.07;;;;;;;8.06;40.53;94173.50;5056636;28;20048;-86
2022/03/19 07:01:15;;;;;;;21.20;9.55;;;;;;;8.74;39.36;94179.81;5044452;28;20104;-85
2022/03/19 07:03:47;;;;;;;16.25;9.35;;;;;;;8.80;38.61;94162.41;5052425;28;20029;-85
2022/03/19 07:06:13;;;;;;;;;;;;;;;8.91;39.00;94195.53;5052926;28;20044;-85
2022/03/19 07:08:42;;;;;;;22.75;9.13;;;;;;;8.40;39.82;94191.97;5052476;28;19966;-86
2022/03/19 07:11:08;;;;;;;19.15;8.77;;;;;;;7.85;41.32;94158.44;5053306;28;20123;-85
2022/03/19 07:13:40;;;;;;;19.08;9.35;;;;;;;8.06;40.86;94126.56;5051951;28;20041;-85
2022/03/19 07:16:17;;;;;;;18.58;9.95;;;;;;;8.44;40.33;94127.81;5035367;28;20064;-86
2022/03/19 07:18:43;;;;;;;16.35;8.75;;;;;;;8.34;39.70;94144.06;5025619;28;20045;-85
2022/03/19 07:21:09;;;;;;;21.42;9.82;;;;;;;8.80;39.05;94151.97;5050774;28;20147;-84
2022/03/19 07:23:35;;;;;;;18.77;9.43;;;;;;;8.21;39.41;94127.88;5048263;28;20068;-85
2022/03/19 07:26:01;;;;;;;20.33;9.48;;;;;;;9.44;39.43;94187.56;5009421;28;20025;-85
2022/03/19 07:28:27;;;;;;;23.25;9.65;;;;;;;9.35;37.50;94181.94;5035190;28;20056;-86
2022/03/19 07:30:56;;;;;;;23.38;10.20;;;;;;;8.78;39.07;94148.84;5051695;28;20385;-85
2022/03/19 07:33:22;;;;;;;20.48;10.70;;;;;;;8.03;40.39;94153.06;5035267;28;20114;-85
2022/03/19 07:35:50;;;;;;;20.90;10.10;;;;;;;7.86;41.20;94108.69;5053223;28;20759;-84
2022/03/19 07:38:24;;;;;;;16.27;8.98;;;;;;;7.10;42.81;94128.59;5018677;28;20040;-85
2022/03/19 07:43:36;;;;;;;18.60;9.38;;;;;;;6.79;43.84;94179.13;5051999;28;20056;-87
2022/03/19 07:46:02;;;;;;;18.65;9.30;;;;;;;6.51;44.28;94151.03;5020019;28;20499;-85
2022/03/19 07:48:31;;;;;;;17.77;9.45;;;;;;;6.52;44.34;94144.84;5018880;28;20039;-85
2022/03/19 07:50:56;;;;;;;19.40;9.90;;;;;;;6.52;43.77;94118.81;5022870;28;20095;-84
2022/03/19 07:53:25;;;;;;;17.98;8.93;;;;;;;7.08;43.98;94102.00;5049677;28;20106;-85
2022/03/19 07:55:55;;;;;;;18.63;9.23;;;;;;;6.55;43.21;94115.75;5035060;28;20033;-84
2022/03/19 07:58:24;;;;;;;18.42;9.75;;;;;;;7.00;43.00;94139.56;5045339;28;20059;-86
2022/03/19 08:00:51;;;;;;;17.23;9.50;;;;;;;7.49;43.17;94153.22;5041982;28;20033;-84
2022/03/19 08:03:19;;;;;;;15.43;8.63;;;;;;;7.64;43.31;94152.78;5025268;28;20395;-86
2022/03/19 08:05:44;;;;;;;17.30;9.70;;;;;;;7.64;44.02;94162.41;5035384;28;20509;-86
2022/03/19 08:08:16;;;;;;;19.65;10.23;;;;;;;8.19;43.40;94135.13;5052353;28;20076;-85
2022/03/19 08:10:45;;;;;;;20.02;10.20;;;;;;;8.50;41.86;94126.13;5020329;28;20037;-84
2022/03/19 08:13:11;;;;;;;23.70;10.10;;;;;;;9.02;41.19;94127.81;5009568;28;20029;-87
2022/03/19 08:15:39;;;;;;;17.27;9.70;;;;;;;8.92;41.24;94108.34;5003100;28;20074;-86
2022/03/19 08:18:11;;;;;;;18.48;10.32;;;;;;;9.05;41.06;94090.75;5025510;28;20478;-85
2022/03/19 08:20:37;;;;;;;17.35;9.40;;;;;;;8.19;43.73;94125.50;5029420;28;20037;-87
2022/03/19 08:23:05;;;;;;;20.27;10.52;;;;;;;8.22;43.40;94119.00;5037290;28;20482;-86
2022/03/19 08:25:31;;;;;;;20.73;11.10;;;;;;;8.94;43.14;94129.78;5035587;28;20029;-87
2022/03/19 08:27:57;;;;;;;22.33;10.50;;;;;;;9.67;42.15;94140.31;5029287;28;20052;-87
2022/03/19 08:30:23;;;;;;;18.55;9.73;;;;;;;9.30;40.30;94117.31;5034974;28;20437;-90
2022/03/19 08:32:48;;;;;;;21.10;9.93;;;;;;;8.52;41.02;94103.19;5018872;28;20029;-86
2022/03/19 08:35:14;;;;;;;21.02;11.02;;;;;;;7.89;44.07;94142.09;5019308;28;20037;-87
2022/03/19 08:37:40;;;;;;;23.02;10.43;;;;;;;7.88;43.37;94098.00;5059958;28;20041;-87
2022/03/19 08:40:18;;;;;;;19.60;10.55;;;;;;;8.98;42.47;94132.69;5068110;28;20041;-87
2022/03/19 08:42:52;;;;;;;20.42;9.70;;;;;;;8.51;42.66;94122.47;5052957;28;20037;-88
2022/03/19 08:45:22;;;;;;;16.02;8.20;;;;;;;7.33;44.41;94140.06;5052269;28;20067;-88
2022/03/19 08:47:48;;;;;;;19.70;10.80;;;;;;;7.04;44.95;94134.69;5051828;28;20090;-87
2022/03/19 08:50:17;;;;;;;19.67;11.10;;;;;;;7.29;45.07;94134.50;5035277;28;20489;-87
2022/03/19 08:52:45;;;;;;;17.52;9.65;;;;;;;8.01;43.74;94117.81;5018888;28;20497;-89
2022/03/19 08:55:11;;;;;;;22.10;10.20;;;;;;;7.83;44.36;94118.75;5036010;28;20128;-90
2022/03/19 08:57:37;;;;;;;14.98;7.93;;;;;;;7.16;45.00;94122.50;5053212;28;20136;-87
2022/03/19 09:00:05;;;;;;;21.33;10.80;;;;;;;7.21;45.51;94117.41;5035752;28;20045;-88
2022/03/19 09:02:31;;;;;;;25.35;9.70;;;;;;;7.42;44.93;94102.25;5052007;28;20033;-86
2022/03/19 09:04:57;;;;;;;23.65;10.80;;;;;;;7.16;44.80;94109.47;5016778;28;20064;-87
2022/03/19 09:07:22;;;;;;;17.10;9.82;;;;;;;7.80;42.64;94103.59;5033184;28;20037;-87
2022/03/19 09:09:52;;;;;;;20.00;9.73;;;;;;;7.97;42.67;94101.84;5039462;28;20067;-86
2022/03/19 09:12:20;;;;;;;19.10;10.15;;;;;;;7.75;42.89;94088.63;5024175;28;20067;-86
2022/03/19 09:14:46;;;;;;;18.15;10.05;;;;;;;7.84;42.86;94091.69;5048609;28;20090;-87
2022/03/19 09:33:26;;;;;;;22.65;10.52;;;;;;;8.28;42.08;94074.53;4917972;29;20059;-87
2022/03/19 09:35:52;;;;;;;17.88;9.50;;;;;;;7.24;43.58;94062.25;4922603;28;20055;-87
2022/03/19 09:38:17;;;;;;;19.73;9.60;;;;;;;8.03;42.90;94027.91;4997653;28;20056;-86
2022/03/19 09:41:05;;;;;;;15.13;8.15;;;;;;;8.11;43.81;94065.88;5051495;28;20072;-88
2022/03/19 09:43:31;;;;;;;21.73;9.75;;;;;;;8.23;42.71;94058.00;5039669;28;20504;-87
2022/03/19 09:45:57;;;;;;;21.65;11.07;;;;;;;8.21;42.81;94042.56;5022000;28;20139;-87
2022/03/19 09:48:23;;;;;;;19.35;10.40;;;;;;;8.34;42.71;94023.25;5036793;28;20033;-86
2022/03/19 09:50:54;;;;;;;17.63;8.60;;;;;;;8.14;42.64;94029.66;5037954;28;20052;-86
2022/03/19 09:53:23;;;;;;;17.52;9.18;;;;;;;8.37;42.95;94021.97;5054705;28;20044;-86
2022/03/19 09:55:50;;;;;;;17.20;8.95;;;;;;;7.74;43.50;94024.47;5007427;28;20033;-87
2022/03/19 09:58:16;;;;;;;17.67;10.40;;;;;;;7.14;44.18;94033.38;5014198;28;20044;-86
2022/03/19 10:00:43;;;;;;;20.45;10.18;;;;;;;7.74;43.70;94029.69;5050255;28;20040;-86
2022/03/19 10:03:12;;;;;;;28.33;10.98;;;;;;;8.33;42.85;94029.47;5033004;28;20036;-86
2022/03/19 10:08:38;;;;;;;11.73;6.90;;;;;;;7.71;43.15;94002.25;5054170;28;20033;-87
2022/03/19 10:11:08;;;;;;;18.17;9.82;;;;;;;8.29;42.60;93995.25;5066204;28;20035;-86
2022/03/19 10:13:40;;;;;;;20.58;10.18;;;;;;;8.52;42.73;94004.00;5049468;28;20034;-86
2022/03/19 10:16:07;;;;;;;20.45;10.48;;;;;;;8.44;43.45;94013.00;5045526;28;20103;-86
2022/03/19 10:18:32;;;;;;;20.90;10.63;;;;;;;8.85;42.70;94013.69;5057874;28;20113;-87
2022/03/19 10:22:04;;;;;;;17.75;10.13;;;;;;;8.78;42.52;93992.16;5055651;28;20075;-87
2022/03/19 10:24:36;;;;;;;20.83;10.65;;;;;;;8.63;41.66;93973.66;4955224;28;20496;-86
2022/03/19 10:27:36;;;;;;;22.92;10.95;;;;;;;8.54;41.75;93931.50;5017333;28;20171;-86
2022/03/19 10:30:43;;;;;;;17.80;10.32;;;;;;;9.08;41.74;93976.16;5037138;28;20421;-86
2022/03/19 10:33:33;;;;;;;15.48;8.05;;;;;;;8.32;41.58;93920.94;5023887;28;20045;-86
2022/03/19 10:37:02;;;;;;;;;;;;;;;;;;;;;
2022/03/19 10:54:27;;;;;;;17.45;10.10;;;;;;;8.54;41.43;93882.69;5053984;28;19923;-87
2022/03/19 10:56:55;;;;;;;22.20;12.13;;;;;;;8.75;41.38;93903.84;5052297;28;20057;-87
2022/03/19 10:59:24;;;;;;;20.00;10.50;;;;;;;8.73;41.82;93892.84;5053195;28;20107;-88
2022/03/19 11:02:01;;;;;;;17.77;9.48;;;;;;;8.45;41.23;93873.69;5051728;28;20021;-89
2022/03/19 11:04:58;;;;;;;18.02;10.25;;;;;;;8.75;42.61;93893.41;5061604;28;20057;-89
2022/03/19 11:07:36;;;;;;;;;;;;;;;;;;;;;
2022/03/19 11:10:11;;;;;;;20.52;10.68;;;;;;;9.09;41.79;93877.66;5054903;28;20069;-89
2022/03/19 11:12:50;;;;;;;22.88;11.70;;;;;;;9.12;41.55;93887.66;5040224;28;20069;-88
2022/03/19 11:15:27;;;;;;;22.30;11.10;;;;;;;9.20;41.68;93881.97;5010065;28;20029;-88
2022/03/19 11:18:14;;;;;;;23.95;11.55;;;;;;;9.40;41.44;93857.91;5020626;28;20044;-88
2022/03/19 11:20:43;;;;;;;21.40;11.80;;;;;;;9.65;40.83;93885.34;5036686;28;20033;-86
2022/03/19 11:23:16;;;;;;;21.50;11.07;;;;;;;8.95;42.57;93872.00;5052648;28;20172;-88
2022/03/19 11:30:21;;;;;;;23.83;12.32;;;;;;;9.32;41.37;93898.34;4984306;28;20046;-93
2022/03/19 11:33:53;;;;;;;24.95;13.25;;;;;;;9.58;41.42;93894.19;4973675;28;20035;-95
2022/03/19 11:40:56;;;;;;;;;;;;;;;;;;;;;
2022/03/19 11:44:09;;;;;;;;;;;;;;;;;;;;;
2022/03/19 11:58:39;;;;;;;21.55;11.30;;;;;;;9.84;41.34;93836.09;5025328;23;20108;-79
2022/03/19 12:01:05;;;;;;;23.02;12.88;;;;;;;10.09;41.25;93831.13;5033787;28;20049;-79
2022/03/19 12:03:31;;;;;;;31.92;13.23;;;;;;;10.08;40.68;93824.28;5034650;28;20041;-79
2022/03/19 12:05:56;;;;;;;25.88;11.68;;;;;;;9.90;41.48;93828.06;5039434;28;20052;-78
2022/03/19 12:08:23;;;;;;;24.95;12.43;;;;;;;10.10;40.99;93826.66;5039822;28;20151;-79
2022/03/19 12:11:01;;;;;;;16.02;9.65;;;;;;;10.29;40.45;93814.00;5038394;28;20064;-74
2022/03/19 12:13:26;;;;;;;24.52;13.10;;;;;;;9.81;41.51;93816.47;5013073;28;20388;-79
2022/03/19 12:15:55;;;;;;;24.02;11.95;;;;;;;9.59;42.63;93808.69;5033479;28;20029;-78
2022/03/19 12:18:39;;;;;;;21.05;12.05;;;;;;;10.14;40.66;93809.44;5033373;28;20030;-78
2022/03/19 12:21:16;;;;;;;23.20;12.73;;;;;;;10.19;41.01;93802.38;5015695;28;20053;-79
2022/03/19 12:23:54;;;;;;;22.80;12.32;;;;;;;10.23;40.84;93801.91;5032857;28;20033;-78
2022/03/19 12:26:25;;;;;;;24.90;12.40;;;;;;;10.39;40.42;93796.53;5035478;28;20521;-79
2022/03/19 12:29:01;;;;;;;22.80;12.35;;;;;;;10.03;40.80;93798.09;5036800;28;20037;-78
2022/03/19 12:31:36;;;;;;;14.90;8.35;;;;;;;10.06;40.80;93796.78;5033957;28;20868;-79
2022/03/19 12:34:03;;;;;;;24.42;12.48;;;;;;;10.06;41.17;93781.88;5027735;28;20052;-78
2022/03/19 12:36:28;;;;;;;27.73;13.07;;;;;;;10.32;40.39;93785.50;5016736;28;20123;-79
2022/03/19 12:39:00;;;;;;;28.20;13.57;;;;;;;10.40;40.16;93773.75;5015299;28;20068;-78
2022/03/19 12:41:27;;;;;;;28.02;13.32;;;;;;;10.11;41.31;93773.28;5039200;28;20033;-79
2022/03/19 12:44:05;;;;;;;21.17;10.80;;;;;;;10.55;40.06;93773.06;5037767;28;20076;-79
2022/03/19 12:46:34;;;;;;;23.55;12.00;;;;;;;10.41;40.03;93772.72;5034591;28;20041;-79
2022/03/19 12:49:07;;;;;;;27.00;14.00;;;;;;;10.71;40.14;93760.84;5037898;28;20116;-80
2022/03/19 12:51:36;;;;;;;23.75;12.13;;;;;;;10.42;40.46;93763.81;5037060;28;20148;-78
2022/03/19 12:54:17;;;;;;;32.20;13.20;;;;;;;10.51;40.60;93743.97;5035852;28;20033;-80
2022/03/19 12:56:42;;;;;;;25.27;12.15;;;;;;;10.79;40.28;93747.25;5037553;28;20549;-79
2022/03/19 12:59:16;;;;;;;26.08;12.57;;;;;;;10.54;40.41;93740.88;5021593;28;20042;-78
2022/03/19 13:01:42;;;;;;;20.20;11.27;;;;;;;10.55;39.88;93747.66;5029174;28;20414;-78
2022/03/19 13:04:07;;;;;;;26.27;13.20;;;;;;;10.91;40.35;93745.19;5018504;28;20037;-78
2022/03/19 13:06:36;;;;;;;26.88;14.20;;;;;;;10.58;40.10;93736.69;5035832;28;20049;-79
2022/03/19 13:09:04;;;;;;;21.05;12.32;;;;;;;10.79;39.90;93736.78;5037639;28;20021;-78
2022/03/19 13:11:51;;;;;;;24.67;12.80;;;;;;;10.19;40.48;93734.34;5037260;28;20033;-78
2022/03/19 13:14:18;;;;;;;23.00;12.35;;;;;;;10.28;41.05;93723.41;5021531;28;20414;-76
2022/03/19 13:16:52;;;;;;;25.70;12.43;;;;;;;10.24;40.88;93735.44;5036527;28;20041;-79
2022/03/19 13:19:18;;;;;;;18.27;9.90;;;;;;;9.57;41.62;93712.22;5021143;28;20045;-77
2022/03/19 13:21:49;;;;;;;24.08;11.82;;;;;;;9.58;41.81;93719.03;5011908;28;20037;-77
2022/03/19 13:24:17;;;;;;;19.90;10.17;;;;;;;9.45;41.49;93713.41;5053044;28;20087;-80
2022/03/19 13:26:43;;;;;;;28.75;14.50;;;;;;;9.94;41.79;93706.22;5035514;28;20037;-79
2022/03/19 13:29:15;;;;;;;29.20;13.75;;;;;;;9.99;41.11;93705.44;5018658;28;20034;-77
2022/03/19 13:31:43;;;;;;;26.50;14.68;;;;;;;10.42;41.03;93716.72;5035941;28;20207;-78
2022/03/19 13:34:16;;;;;;;24.77;12.90;;;;;;;10.51;40.31;93707.31;5036754;28;20053;-80
2022/03/19 13:36:49;;;;;;;19.58;10.02;;;;;;;10.29;40.89;93710.13;5050098;28;20029;-80
2022/03/19 13:39:23;;;;;;;20.52;11.30;;;;;;;10.18;41.85;93708.47;5032484;28;20044;-79
2022/03/19 13:41:51;;;;;;;22.90;11.45;;;;;;;9.75;41.72;93702.44;5035121;28;20037;-81
2022/03/19 13:44:28;;;;;;;22.00;11.75;;;;;;;9.93;41.18;93690.75;5023377;28;20375;-77
2022/03/19 13:47:07;;;;;;;31.13;13.23;;;;;;;9.98;41.49;93702.06;5017689;28;20041;-81
2022/03/19 13:49:43;;;;;;;27.80;13.88;;;;;;;10.25;40.97;93695.16;5021621;28;20029;-79
2022/03/19 13:52:33;;;;;;;27.38;13.63;;;;;;;9.82;42.02;93695.16;5031130;28;20052;-79
2022/03/19 13:55:04;;;;;;;27.10;13.48;;;;;;;10.39;41.02;93691.84;5024821;28;20033;-80
2022/03/19 13:57:35;;;;;;;26.00;12.60;;;;;;;9.65;41.60;93687.44;5037783;28;20045;-82
2022/03/19 14:00:08;;;;;;;24.48;13.05;;;;;;;9.94;41.66;93706.22;5036474;28;20116;-79
2022/03/19 14:02:53;;;;;;;31.02;13.18;;;;;;;9.72;41.61;93676.78;5025743;28;20083;-78
2022/03/19 14:05:24;;;;;;;19.60;10.80;;;;;;;10.01;41.71;93682.44;5038456;28;20053;-80
2022/03/19 14:07:52;;;;;;;26.05;13.30;;;;;;;9.86;42.01;93687.56;5029760;28;20121;-78
2022/03/19 14:10:18;;;;;;;18.85;9.68;;;;;;;9.54;42.76;93689.19;5016541;28;20029;-80
2022/03/19 14:12:46;;;;;;;26.42;13.50;;;;;;;10.02;41.74;93691.88;5042679;28;20131;-80
2022/03/19 14:15:16;;;;;;;23.70;12.85;;;;;;;10.14;41.03;93679.38;5028093;28;20044;-79
2022/03/19 14:17:47;;;;;;;25.25;12.35;;;;;;;9.52;42.05;93678.19;5026682;28;20123;-80
2022/03/19 14:20:14;;;;;;;20.50;10.93;;;;;;;9.04;43.04;93687.72;5019233;28;20119;-80
2022/03/19 14:22:40;;;;;;;18.95;10.45;;;;;;;9.81;42.40;93680.50;5035452;28;20098;-80
2022/03/19 14:25:06;;;;;;;29.35;14.77;;;;;;;9.58;42.27;93679.03;5012734;28;20134;-79
2022/03/19 14:27:32;;;;;;;23.92;12.75;;;;;;;10.00;41.39;93673.81;5033123;28;20049;-80
2022/03/19 14:29:58;;;;;;;27.35;13.95;;;;;;;9.53;42.43;93679.00;5016963;28;20033;-80
2022/03/19 14:32:23;;;;;;;23.42;12.93;;;;;;;9.59;42.02;93676.16;5032000;28;20376;-80
2022/03/19 14:34:49;;;;;;;30.15;12.23;;;;;;;9.52;42.29;93677.41;5022214;28;20048;-78
2022/03/19 14:37:15;;;;;;;20.60;10.65;;;;;;;9.20;42.86;93675.56;5028295;28;20029;-79
2022/03/19 14:39:41;;;;;;;26.25;14.10;;;;;;;9.40;42.22;93674.97;5002867;28;20026;-80
2022/03/19 14:42:07;;;;;;;31.23;13.93;;;;;;;9.28;43.25;93667.31;5024225;28;20041;-81
2022/03/19 14:44:34;;;;;;;26.02;14.80;;;;;;;9.18;42.98;93675.81;5033403;28;20037;-80
2022/03/19 14:47:00;;;;;;;30.38;14.75;;;;;;;9.68;42.52;93671.28;5028526;28;20021;-80
2022/03/19 14:49:26;;;;;;;26.48;11.07;;;;;;;9.41;41.78;93681.75;5037136;28;20353;-79
2022/03/19 14:51:56;;;;;;;24.77;12.38;;;;;;;9.02;43.14;93673.34;5038047;28;20072;-77
2022/03/19 14:54:23;;;;;;;27.58;14.40;;;;;;;9.42;43.07;93672.13;5016946;28;20069;-79
2022/03/19 14:56:48;;;;;;;32.00;14.18;;;;;;;9.25;43.26;93680.84;5030159;28;20505;-79
2022/03/19 14:59:14;;;;;;;22.23;13.13;;;;;;;8.83;43.87;93671.06;5031342;28;20041;-80
2022/03/19 15:01:40;;;;;;;28.23;14.15;;;;;;;8.88;43.85;93672.94;5029631;28;20037;-80
2022/03/19 15:04:08;;;;;;;25.42;13.57;;;;;;;8.74;43.82;93672.53;5032905;28;20056;-78
2022/03/19 15:06:33;;;;;;;25.67;14.55;;;;;;;8.79;44.16;93674.41;5021874;28;20053;-78
2022/03/19 15:08:59;;;;;;;16.95;9.73;;;;;;;8.96;43.13;93685.53;5002795;28;20026;-80
2022/03/19 15:11:27;;;;;;;27.10;14.05;;;;;;;9.28;42.85;93676.97;5026841;28;20103;-79
2022/03/19 15:13:54;;;;;;;29.80;14.57;;;;;;;9.15;43.06;93676.31;5008249;28;20560;-79
2022/03/19 15:16:22;;;;;;;24.60;14.32;;;;;;;8.86;43.38;93677.63;5032131;28;20049;-79